sensor_id;sensor_type;location;lat;lon;timestamp;temperature;humidity
24035;DHT22;12242;50.952;4.678;2022-10-16T00:01:40;16.50;99.90
24035;DHT22;12242;50.952;4.678;2022-10-16T00:04:08;16.50;99.90
24035;DHT22;12242;50.952;4.678;2022-10-16T00:06:38;16.60;99.90
24035;DHT22;12242;50.952;4.678;2022-10-16T00:09:09;16.50;99.90
24035;DHT22;12242;50.952;4.678;2022-10-16T00:11:40;16.60;99.90
24035;DHT22;12242;50.952;4.678;2022-10-16T00:14:12;16.60;99.90
24035;DHT22;12242;50.952;4.678;2022-10-16T00:16:40;16.50;99.90
24035;DHT22;12242;50.952;4.678;2022-10-16T00:19:09;16.60;99.90
24035;DHT22;12242;50.952;4.678;2022-10-16T00:21:39;16.60;99.90
24035;DHT22;12242;50.952;4.678;2022-10-16T00:24:10;16.50;99.90
24035;DHT22;12242;50.952;4.678;2022-10-16T00:26:38;16.50;99.90
24035;DHT22;12242;50.952;4.678;2022-10-16T00:29:06;16.50;99.90
24035;DHT22;12242;50.952;4.678;2022-10-16T00:31:34;16.40;99.90
24035;DHT22;12242;50.952;4.678;2022-10-16T00:34:01;16.40;99.90
24035;DHT22;12242;50.952;4.678;2022-10-16T00:36:29;16.40;99.90
24035;DHT22;12242;50.952;4.678;2022-10-16T00:38:59;16.40;99.90
24035;DHT22;12242;50.952;4.678;2022-10-16T00:41:35;16.40;99.90
24035;DHT22;12242;50.952;4.678;2022-10-16T00:44:40;16.20;99.90
24035;DHT22;12242;50.952;4.678;2022-10-16T00:46:51;16.20;99.90
24035;DHT22;12242;50.952;4.678;2022-10-16T00:49:19;16.20;99.90
24035;DHT22;12242;50.952;4.678;2022-10-16T00:51:53;16.20;99.90
24035;DHT22;12242;50.952;4.678;2022-10-16T00:54:29;16.10;99.90
24035;DHT22;12242;50.952;4.678;2022-10-16T00:57:02;16.10;99.90
24035;DHT22;12242;50.952;4.678;2022-10-16T01:01:59;16.10;99.90
24035;DHT22;12242;50.952;4.678;2022-10-16T01:04:37;16.10;99.90
24035;DHT22;12242;50.952;4.678;2022-10-16T01:09:51;16.10;99.90
24035;DHT22;12242;50.952;4.678;2022-10-16T01:12:51;16.10;99.90
24035;DHT22;12242;50.952;4.678;2022-10-16T01:15:47;16.10;99.90
24035;DHT22;12242;50.952;4.678;2022-10-16T01:21:28;16.20;99.90
24035;DHT22;12242;50.952;4.678;2022-10-16T01:27:28;16.10;99.90
24035;DHT22;12242;50.952;4.678;2022-10-16T01:30:26;16.00;99.90
24035;DHT22;12242;50.952;4.678;2022-10-16T01:33:15;16.00;99.90
24035;DHT22;12242;50.952;4.678;2022-10-16T01:35:55;16.00;99.90
24035;DHT22;12242;50.952;4.678;2022-10-16T01:38:35;16.00;99.90
24035;DHT22;12242;50.952;4.678;2022-10-16T01:41:11;16.00;99.90
24035;DHT22;12242;50.952;4.678;2022-10-16T01:43:49;16.00;99.90
24035;DHT22;12242;50.952;4.678;2022-10-16T01:46:21;16.00;99.90
24035;DHT22;12242;50.952;4.678;2022-10-16T01:48:52;15.90;99.90
24035;DHT22;12242;50.952;4.678;2022-10-16T01:51:21;15.90;99.90
24035;DHT22;12242;50.952;4.678;2022-10-16T01:53:55;15.90;99.90
24035;DHT22;12242;50.952;4.678;2022-10-16T01:56:25;15.90;99.90
24035;DHT22;12242;50.952;4.678;2022-10-16T01:59:01;15.80;99.90
24035;DHT22;12242;50.952;4.678;2022-10-16T02:01:33;15.80;99.90
24035;DHT22;12242;50.952;4.678;2022-10-16T02:04:09;15.90;99.90
24035;DHT22;12242;50.952;4.678;2022-10-16T02:06:37;15.80;99.90
24035;DHT22;12242;50.952;4.678;2022-10-16T02:09:06;15.90;99.90
24035;DHT22;12242;50.952;4.678;2022-10-16T02:11:36;15.90;99.90
24035;DHT22;12242;50.952;4.678;2022-10-16T02:14:05;15.90;99.90
24035;DHT22;12242;50.952;4.678;2022-10-16T02:16:39;15.90;99.90
24035;DHT22;12242;50.952;4.678;2022-10-16T02:19:07;15.90;99.90
24035;DHT22;12242;50.952;4.678;2022-10-16T02:21:59;15.90;99.90
24035;DHT22;12242;50.952;4.678;2022-10-16T02:24:42;15.90;99.90
24035;DHT22;12242;50.952;4.678;2022-10-16T02:27:15;16.00;99.90
24035;DHT22;12242;50.952;4.678;2022-10-16T02:29:52;15.90;99.90
24035;DHT22;12242;50.952;4.678;2022-10-16T02:32:23;15.90;99.90
24035;DHT22;12242;50.952;4.678;2022-10-16T02:34:52;15.90;99.90
24035;DHT22;12242;50.952;4.678;2022-10-16T02:37:20;15.90;99.90
24035;DHT22;12242;50.952;4.678;2022-10-16T02:39:48;15.90;99.90
24035;DHT22;12242;50.952;4.678;2022-10-16T02:42:17;15.90;99.90
24035;DHT22;12242;50.952;4.678;2022-10-16T02:44:46;15.80;99.90
24035;DHT22;12242;50.952;4.678;2022-10-16T02:47:17;15.90;99.90
24035;DHT22;12242;50.952;4.678;2022-10-16T02:49:49;15.90;99.90
24035;DHT22;12242;50.952;4.678;2022-10-16T02:52:16;15.90;99.90
24035;DHT22;12242;50.952;4.678;2022-10-16T02:54:46;15.80;99.90
24035;DHT22;12242;50.952;4.678;2022-10-16T02:57:13;15.80;99.90
24035;DHT22;12242;50.952;4.678;2022-10-16T02:59:40;15.80;99.90
24035;DHT22;12242;50.952;4.678;2022-10-16T03:02:08;15.80;99.90
24035;DHT22;12242;50.952;4.678;2022-10-16T03:04:35;15.80;99.90
24035;DHT22;12242;50.952;4.678;2022-10-16T03:07:03;15.70;99.90
24035;DHT22;12242;50.952;4.678;2022-10-16T03:09:31;15.60;99.90
24035;DHT22;12242;50.952;4.678;2022-10-16T03:12:00;15.70;99.90
24035;DHT22;12242;50.952;4.678;2022-10-16T03:14:28;15.70;99.90
24035;DHT22;12242;50.952;4.678;2022-10-16T03:16:56;15.60;99.90
24035;DHT22;12242;50.952;4.678;2022-10-16T03:19:24;15.60;99.90
24035;DHT22;12242;50.952;4.678;2022-10-16T03:21:51;15.70;99.90
24035;DHT22;12242;50.952;4.678;2022-10-16T03:24:21;15.70;99.90
24035;DHT22;12242;50.952;4.678;2022-10-16T03:26:48;15.60;99.90
24035;DHT22;12242;50.952;4.678;2022-10-16T03:29:16;15.70;99.90
24035;DHT22;12242;50.952;4.678;2022-10-16T03:31:46;15.70;99.90
24035;DHT22;12242;50.952;4.678;2022-10-16T03:34:15;15.70;99.90
24035;DHT22;12242;50.952;4.678;2022-10-16T03:36:43;15.70;99.90
24035;DHT22;12242;50.952;4.678;2022-10-16T03:39:16;15.60;99.90
24035;DHT22;12242;50.952;4.678;2022-10-16T03:41:43;15.60;99.90
24035;DHT22;12242;50.952;4.678;2022-10-16T03:44:11;15.60;99.90
24035;DHT22;12242;50.952;4.678;2022-10-16T03:46:38;15.70;99.90
24035;DHT22;12242;50.952;4.678;2022-10-16T03:49:08;15.70;99.90
24035;DHT22;12242;50.952;4.678;2022-10-16T03:51:36;15.70;99.90
24035;DHT22;12242;50.952;4.678;2022-10-16T03:54:04;15.70;99.90
24035;DHT22;12242;50.952;4.678;2022-10-16T03:56:31;15.70;99.90
24035;DHT22;12242;50.952;4.678;2022-10-16T03:58:58;15.80;99.90
24035;DHT22;12242;50.952;4.678;2022-10-16T04:01:28;15.70;99.90
24035;DHT22;12242;50.952;4.678;2022-10-16T04:03:55;15.60;99.90
24035;DHT22;12242;50.952;4.678;2022-10-16T04:06:22;15.70;99.90
24035;DHT22;12242;50.952;4.678;2022-10-16T04:08:50;15.70;99.90
24035;DHT22;12242;50.952;4.678;2022-10-16T04:11:20;15.80;99.90
24035;DHT22;12242;50.952;4.678;2022-10-16T04:13:51;15.80;99.90
24035;DHT22;12242;50.952;4.678;2022-10-16T04:16:21;15.90;99.90
24035;DHT22;12242;50.952;4.678;2022-10-16T04:18:48;15.80;99.90
24035;DHT22;12242;50.952;4.678;2022-10-16T04:21:16;15.80;99.90
24035;DHT22;12242;50.952;4.678;2022-10-16T04:23:46;15.80;99.90
24035;DHT22;12242;50.952;4.678;2022-10-16T04:26:13;15.90;99.90
24035;DHT22;12242;50.952;4.678;2022-10-16T04:28:40;15.90;99.90
24035;DHT22;12242;50.952;4.678;2022-10-16T04:31:07;15.90;99.90
24035;DHT22;12242;50.952;4.678;2022-10-16T04:33:35;16.00;99.90
24035;DHT22;12242;50.952;4.678;2022-10-16T04:36:03;15.90;99.90
24035;DHT22;12242;50.952;4.678;2022-10-16T04:38:33;15.90;99.90
24035;DHT22;12242;50.952;4.678;2022-10-16T04:41:03;15.90;99.90
24035;DHT22;12242;50.952;4.678;2022-10-16T04:43:31;15.90;99.90
24035;DHT22;12242;50.952;4.678;2022-10-16T04:46:01;15.80;99.90
24035;DHT22;12242;50.952;4.678;2022-10-16T04:48:32;15.80;99.90
24035;DHT22;12242;50.952;4.678;2022-10-16T04:50:59;15.80;99.90
24035;DHT22;12242;50.952;4.678;2022-10-16T04:53:26;15.70;99.90
24035;DHT22;12242;50.952;4.678;2022-10-16T04:55:54;15.80;99.90
24035;DHT22;12242;50.952;4.678;2022-10-16T04:58:21;15.80;99.90
24035;DHT22;12242;50.952;4.678;2022-10-16T05:00:50;15.70;99.90
24035;DHT22;12242;50.952;4.678;2022-10-16T05:03:18;15.80;99.90
24035;DHT22;12242;50.952;4.678;2022-10-16T05:05:46;15.80;99.90
24035;DHT22;12242;50.952;4.678;2022-10-16T05:08:15;15.90;99.90
24035;DHT22;12242;50.952;4.678;2022-10-16T05:10:44;15.90;99.90
24035;DHT22;12242;50.952;4.678;2022-10-16T05:13:14;15.90;99.90
24035;DHT22;12242;50.952;4.678;2022-10-16T05:15:42;16.00;99.90
24035;DHT22;12242;50.952;4.678;2022-10-16T05:18:09;15.90;99.90
24035;DHT22;12242;50.952;4.678;2022-10-16T05:20:41;16.00;99.90
24035;DHT22;12242;50.952;4.678;2022-10-16T05:23:13;16.00;99.90
24035;DHT22;12242;50.952;4.678;2022-10-16T05:25:40;16.00;99.90
24035;DHT22;12242;50.952;4.678;2022-10-16T05:28:08;15.90;99.90
24035;DHT22;12242;50.952;4.678;2022-10-16T05:30:37;15.90;99.90
24035;DHT22;12242;50.952;4.678;2022-10-16T05:33:05;15.80;99.90
24035;DHT22;12242;50.952;4.678;2022-10-16T05:35:36;15.80;99.90
24035;DHT22;12242;50.952;4.678;2022-10-16T05:38:03;15.80;99.90
24035;DHT22;12242;50.952;4.678;2022-10-16T05:40:31;15.90;99.90
24035;DHT22;12242;50.952;4.678;2022-10-16T05:42:58;15.70;99.90
24035;DHT22;12242;50.952;4.678;2022-10-16T05:45:28;15.60;99.90
24035;DHT22;12242;50.952;4.678;2022-10-16T05:47:55;15.70;99.90
24035;DHT22;12242;50.952;4.678;2022-10-16T05:50:25;15.70;99.90
24035;DHT22;12242;50.952;4.678;2022-10-16T05:52:55;15.60;99.90
24035;DHT22;12242;50.952;4.678;2022-10-16T05:55:25;15.60;99.90
24035;DHT22;12242;50.952;4.678;2022-10-16T05:57:54;15.50;99.90
24035;DHT22;12242;50.952;4.678;2022-10-16T06:00:21;15.50;99.90
24035;DHT22;12242;50.952;4.678;2022-10-16T06:02:49;15.50;99.90
24035;DHT22;12242;50.952;4.678;2022-10-16T06:05:16;15.60;99.90
24035;DHT22;12242;50.952;4.678;2022-10-16T06:07:43;15.60;99.90
24035;DHT22;12242;50.952;4.678;2022-10-16T06:10:10;15.60;99.90
24035;DHT22;12242;50.952;4.678;2022-10-16T06:12:38;15.60;99.90
24035;DHT22;12242;50.952;4.678;2022-10-16T06:15:05;15.60;99.90
24035;DHT22;12242;50.952;4.678;2022-10-16T06:17:32;15.60;99.90
24035;DHT22;12242;50.952;4.678;2022-10-16T06:20:00;15.60;99.90
24035;DHT22;12242;50.952;4.678;2022-10-16T06:22:27;15.60;99.90
24035;DHT22;12242;50.952;4.678;2022-10-16T06:24:55;15.60;99.90
24035;DHT22;12242;50.952;4.678;2022-10-16T06:27:22;15.50;99.90
24035;DHT22;12242;50.952;4.678;2022-10-16T06:29:52;15.50;99.90
24035;DHT22;12242;50.952;4.678;2022-10-16T06:32:20;15.60;99.90
24035;DHT22;12242;50.952;4.678;2022-10-16T06:34:49;15.60;99.90
24035;DHT22;12242;50.952;4.678;2022-10-16T06:37:17;15.60;99.90
24035;DHT22;12242;50.952;4.678;2022-10-16T06:39:46;15.60;99.90
24035;DHT22;12242;50.952;4.678;2022-10-16T06:42:13;15.60;99.90
24035;DHT22;12242;50.952;4.678;2022-10-16T06:44:41;15.70;99.90
24035;DHT22;12242;50.952;4.678;2022-10-16T06:47:08;15.70;99.90
24035;DHT22;12242;50.952;4.678;2022-10-16T06:49:35;15.70;99.90
24035;DHT22;12242;50.952;4.678;2022-10-16T06:52:05;15.70;99.90
24035;DHT22;12242;50.952;4.678;2022-10-16T06:54:35;15.70;99.90
24035;DHT22;12242;50.952;4.678;2022-10-16T06:57:08;15.80;99.90
24035;DHT22;12242;50.952;4.678;2022-10-16T06:59:35;16.00;99.90
24035;DHT22;12242;50.952;4.678;2022-10-16T07:02:06;16.10;99.90
24035;DHT22;12242;50.952;4.678;2022-10-16T07:04:35;16.20;99.90
24035;DHT22;12242;50.952;4.678;2022-10-16T07:07:03;16.30;99.90
24035;DHT22;12242;50.952;4.678;2022-10-16T07:09:35;16.60;99.90
24035;DHT22;12242;50.952;4.678;2022-10-16T07:12:03;17.00;99.90
24035;DHT22;12242;50.952;4.678;2022-10-16T07:14:30;17.30;99.90
24035;DHT22;12242;50.952;4.678;2022-10-16T07:17:00;17.50;99.90
24035;DHT22;12242;50.952;4.678;2022-10-16T07:19:28;17.40;99.90
24035;DHT22;12242;50.952;4.678;2022-10-16T07:22:03;17.30;99.90
24035;DHT22;12242;50.952;4.678;2022-10-16T07:24:30;17.40;99.90
24035;DHT22;12242;50.952;4.678;2022-10-16T07:27:01;17.30;99.90
24035;DHT22;12242;50.952;4.678;2022-10-16T07:29:28;17.30;99.90
24035;DHT22;12242;50.952;4.678;2022-10-16T07:31:58;17.20;99.90
24035;DHT22;12242;50.952;4.678;2022-10-16T07:34:27;17.10;99.90
24035;DHT22;12242;50.952;4.678;2022-10-16T07:36:57;17.00;99.90
24035;DHT22;12242;50.952;4.678;2022-10-16T07:39:25;16.90;99.90
24035;DHT22;12242;50.952;4.678;2022-10-16T07:41:54;16.80;99.90
24035;DHT22;12242;50.952;4.678;2022-10-16T07:44:21;16.70;99.90
24035;DHT22;12242;50.952;4.678;2022-10-16T07:46:49;16.60;99.90
24035;DHT22;12242;50.952;4.678;2022-10-16T07:49:17;16.60;99.90
24035;DHT22;12242;50.952;4.678;2022-10-16T07:51:44;16.50;99.90
24035;DHT22;12242;50.952;4.678;2022-10-16T07:54:11;16.50;99.90
24035;DHT22;12242;50.952;4.678;2022-10-16T07:56:39;16.50;99.90
24035;DHT22;12242;50.952;4.678;2022-10-16T07:59:10;16.60;99.90
24035;DHT22;12242;50.952;4.678;2022-10-16T08:01:37;16.70;99.90
24035;DHT22;12242;50.952;4.678;2022-10-16T08:04:05;16.80;99.90
24035;DHT22;12242;50.952;4.678;2022-10-16T08:06:39;16.80;99.90
24035;DHT22;12242;50.952;4.678;2022-10-16T08:09:08;16.90;99.90
24035;DHT22;12242;50.952;4.678;2022-10-16T08:11:38;16.90;99.90
24035;DHT22;12242;50.952;4.678;2022-10-16T08:14:05;17.00;99.90
24035;DHT22;12242;50.952;4.678;2022-10-16T08:16:33;17.10;99.90
24035;DHT22;12242;50.952;4.678;2022-10-16T08:19:03;17.10;99.90
24035;DHT22;12242;50.952;4.678;2022-10-16T08:21:31;17.30;99.90
24035;DHT22;12242;50.952;4.678;2022-10-16T08:23:58;17.50;99.90
24035;DHT22;12242;50.952;4.678;2022-10-16T08:26:28;17.90;99.90
24035;DHT22;12242;50.952;4.678;2022-10-16T08:28:56;18.80;99.90
24035;DHT22;12242;50.952;4.678;2022-10-16T08:31:26;19.80;99.90
24035;DHT22;12242;50.952;4.678;2022-10-16T08:33:54;21.10;99.90
24035;DHT22;12242;50.952;4.678;2022-10-16T08:36:21;21.90;99.90
24035;DHT22;12242;50.952;4.678;2022-10-16T08:38:49;22.40;99.90
24035;DHT22;12242;50.952;4.678;2022-10-16T08:41:36;22.70;99.90
24035;DHT22;12242;50.952;4.678;2022-10-16T08:44:31;23.10;99.90
24035;DHT22;12242;50.952;4.678;2022-10-16T08:47:26;23.40;99.90
24035;DHT22;12242;50.952;4.678;2022-10-16T08:50:02;24.10;99.90
24035;DHT22;12242;50.952;4.678;2022-10-16T08:52:39;24.40;99.90
24035;DHT22;12242;50.952;4.678;2022-10-16T08:55:24;24.60;99.90
24035;DHT22;12242;50.952;4.678;2022-10-16T08:57:55;24.70;99.10
24035;DHT22;12242;50.952;4.678;2022-10-16T09:00:22;24.90;99.70
24035;DHT22;12242;50.952;4.678;2022-10-16T09:14:02;26.20;97.70
24035;DHT22;12242;50.952;4.678;2022-10-16T09:16:43;26.40;97.00
24035;DHT22;12242;50.952;4.678;2022-10-16T09:19:36;26.30;97.20
24035;DHT22;12242;50.952;4.678;2022-10-16T09:22:15;26.50;96.30
24035;DHT22;12242;50.952;4.678;2022-10-16T09:24:43;26.70;95.80
24035;DHT22;12242;50.952;4.678;2022-10-16T09:27:12;26.90;95.80
24035;DHT22;12242;50.952;4.678;2022-10-16T09:29:40;27.60;95.10
24035;DHT22;12242;50.952;4.678;2022-10-16T09:32:12;28.10;93.00
24035;DHT22;12242;50.952;4.678;2022-10-16T09:34:48;28.00;92.50
24035;DHT22;12242;50.952;4.678;2022-10-16T09:37:22;28.00;93.30
24035;DHT22;12242;50.952;4.678;2022-10-16T09:39:54;28.10;91.50
24035;DHT22;12242;50.952;4.678;2022-10-16T09:42:36;27.90;90.90
24035;DHT22;12242;50.952;4.678;2022-10-16T09:45:05;28.00;92.00
24035;DHT22;12242;50.952;4.678;2022-10-16T09:47:39;28.00;91.50
24035;DHT22;12242;50.952;4.678;2022-10-16T09:50:26;28.40;91.90
24035;DHT22;12242;50.952;4.678;2022-10-16T09:53:38;28.30;90.60
24035;DHT22;12242;50.952;4.678;2022-10-16T09:56:06;28.80;91.20
24035;DHT22;12242;50.952;4.678;2022-10-16T09:58:42;28.90;89.30
24035;DHT22;12242;50.952;4.678;2022-10-16T10:01:14;28.80;90.60
24035;DHT22;12242;50.952;4.678;2022-10-16T10:03:44;28.80;90.30
24035;DHT22;12242;50.952;4.678;2022-10-16T10:06:25;28.80;89.50
24035;DHT22;12242;50.952;4.678;2022-10-16T10:17:11;29.00;85.90
24035;DHT22;12242;50.952;4.678;2022-10-16T10:19:51;28.40;88.00
24035;DHT22;12242;50.952;4.678;2022-10-16T10:30:41;25.30;92.30
24035;DHT22;12242;50.952;4.678;2022-10-16T10:38:58;26.50;92.70
24035;DHT22;12242;50.952;4.678;2022-10-16T10:46:57;27.60;91.10
24035;DHT22;12242;50.952;4.678;2022-10-16T10:55:19;28.40;88.50
24035;DHT22;12242;50.952;4.678;2022-10-16T10:58:11;28.70;89.70
24035;DHT22;12242;50.952;4.678;2022-10-16T11:06:40;28.60;87.20
24035;DHT22;12242;50.952;4.678;2022-10-16T11:09:53;28.10;87.20
24035;DHT22;12242;50.952;4.678;2022-10-16T11:12:35;27.90;90.00
24035;DHT22;12242;50.952;4.678;2022-10-16T11:15:11;28.10;87.70
24035;DHT22;12242;50.952;4.678;2022-10-16T11:20:47;29.40;87.40
24035;DHT22;12242;50.952;4.678;2022-10-16T11:23:25;29.70;83.60
24035;DHT22;12242;50.952;4.678;2022-10-16T11:25:57;30.20;85.70
24035;DHT22;12242;50.952;4.678;2022-10-16T11:28:37;30.70;83.60
24035;DHT22;12242;50.952;4.678;2022-10-16T11:37:17;31.60;79.70
24035;DHT22;12242;50.952;4.678;2022-10-16T11:39:46;31.40;78.60
24035;DHT22;12242;50.952;4.678;2022-10-16T11:42:37;31.20;79.00
24035;DHT22;12242;50.952;4.678;2022-10-16T11:45:29;31.00;80.50
24035;DHT22;12242;50.952;4.678;2022-10-16T11:51:02;29.50;79.50
24035;DHT22;12242;50.952;4.678;2022-10-16T11:54:28;28.90;80.90
24035;DHT22;12242;50.952;4.678;2022-10-16T11:56:37;28.00;83.70
24035;DHT22;12242;50.952;4.678;2022-10-16T11:59:29;27.40;85.40
24035;DHT22;12242;50.952;4.678;2022-10-16T12:08:14;26.70;87.80
24035;DHT22;12242;50.952;4.678;2022-10-16T12:10:46;26.40;88.90
24035;DHT22;12242;50.952;4.678;2022-10-16T12:13:35;26.20;89.90
24035;DHT22;12242;50.952;4.678;2022-10-16T12:18:44;25.60;90.00
24035;DHT22;12242;50.952;4.678;2022-10-16T12:21:13;25.40;90.30
24035;DHT22;12242;50.952;4.678;2022-10-16T12:23:51;25.30;91.60
24035;DHT22;12242;50.952;4.678;2022-10-16T12:26:32;25.20;90.70
24035;DHT22;12242;50.952;4.678;2022-10-16T12:31:46;25.20;90.40
24035;DHT22;12242;50.952;4.678;2022-10-16T12:34:28;25.10;90.00
24035;DHT22;12242;50.952;4.678;2022-10-16T12:37:09;24.90;90.60
24035;DHT22;12242;50.952;4.678;2022-10-16T12:39:38;24.90;90.50
24035;DHT22;12242;50.952;4.678;2022-10-16T12:44:53;24.70;91.20
24035;DHT22;12242;50.952;4.678;2022-10-16T12:49:55;24.30;92.20
24035;DHT22;12242;50.952;4.678;2022-10-16T12:52:38;24.30;92.60
24035;DHT22;12242;50.952;4.678;2022-10-16T12:55:16;24.40;92.30
24035;DHT22;12242;50.952;4.678;2022-10-16T13:00:41;24.10;92.10
24035;DHT22;12242;50.952;4.678;2022-10-16T13:06:26;23.80;93.30
24035;DHT22;12242;50.952;4.678;2022-10-16T13:12:12;23.30;93.80
24035;DHT22;12242;50.952;4.678;2022-10-16T13:14:51;23.20;93.80
24035;DHT22;12242;50.952;4.678;2022-10-16T13:17:27;23.10;93.90
24035;DHT22;12242;50.952;4.678;2022-10-16T13:25:57;23.30;94.50
24035;DHT22;12242;50.952;4.678;2022-10-16T13:28:31;23.40;94.20
24035;DHT22;12242;50.952;4.678;2022-10-16T13:31:00;23.50;94.10
24035;DHT22;12242;50.952;4.678;2022-10-16T13:33:35;23.40;93.90
24035;DHT22;12242;50.952;4.678;2022-10-16T13:36:17;23.40;94.10
24035;DHT22;12242;50.952;4.678;2022-10-16T13:38:47;23.30;93.90
24035;DHT22;12242;50.952;4.678;2022-10-16T13:41:17;23.20;94.80
24035;DHT22;12242;50.952;4.678;2022-10-16T13:43:52;23.10;94.10
24035;DHT22;12242;50.952;4.678;2022-10-16T13:46:23;23.10;95.30
24035;DHT22;12242;50.952;4.678;2022-10-16T13:49:15;23.30;93.90
24035;DHT22;12242;50.952;4.678;2022-10-16T13:51:54;23.40;93.80
24035;DHT22;12242;50.952;4.678;2022-10-16T13:54:24;23.40;94.80
24035;DHT22;12242;50.952;4.678;2022-10-16T13:56:53;23.50;94.20
24035;DHT22;12242;50.952;4.678;2022-10-16T13:59:36;23.50;94.10
24035;DHT22;12242;50.952;4.678;2022-10-16T14:02:32;23.30;93.90
24035;DHT22;12242;50.952;4.678;2022-10-16T14:05:04;23.10;94.80
24035;DHT22;12242;50.952;4.678;2022-10-16T14:07:36;23.10;94.90
24035;DHT22;12242;50.952;4.678;2022-10-16T14:10:18;23.00;95.30
24035;DHT22;12242;50.952;4.678;2022-10-16T14:13:06;23.00;95.10
24035;DHT22;12242;50.952;4.678;2022-10-16T14:15:35;23.00;95.90
24035;DHT22;12242;50.952;4.678;2022-10-16T14:18:05;23.10;95.40
24035;DHT22;12242;50.952;4.678;2022-10-16T14:20:34;23.30;94.80
24035;DHT22;12242;50.952;4.678;2022-10-16T14:23:17;23.10;94.90
24035;DHT22;12242;50.952;4.678;2022-10-16T14:25:46;22.90;96.00
24035;DHT22;12242;50.952;4.678;2022-10-16T14:28:22;22.80;95.70
24035;DHT22;12242;50.952;4.678;2022-10-16T14:31:00;22.60;96.70
24035;DHT22;12242;50.952;4.678;2022-10-16T14:33:32;22.50;96.90
24035;DHT22;12242;50.952;4.678;2022-10-16T14:36:14;22.40;96.70
24035;DHT22;12242;50.952;4.678;2022-10-16T14:38:57;22.40;96.70
24035;DHT22;12242;50.952;4.678;2022-10-16T14:41:25;22.20;97.20
24035;DHT22;12242;50.952;4.678;2022-10-16T14:43:55;22.20;97.30
24035;DHT22;12242;50.952;4.678;2022-10-16T14:46:31;22.30;97.60
24035;DHT22;12242;50.952;4.678;2022-10-16T14:49:15;22.20;97.70
24035;DHT22;12242;50.952;4.678;2022-10-16T14:51:44;22.40;98.10
24035;DHT22;12242;50.952;4.678;2022-10-16T14:54:14;22.50;97.70
24035;DHT22;12242;50.952;4.678;2022-10-16T14:56:51;22.40;97.60
24035;DHT22;12242;50.952;4.678;2022-10-16T14:59:33;22.40;97.90
24035;DHT22;12242;50.952;4.678;2022-10-16T15:04:48;22.00;97.50
24035;DHT22;12242;50.952;4.678;2022-10-16T15:07:17;21.90;98.50
24035;DHT22;12242;50.952;4.678;2022-10-16T15:09:44;22.00;98.80
24035;DHT22;12242;50.952;4.678;2022-10-16T15:12:17;22.00;98.70
24035;DHT22;12242;50.952;4.678;2022-10-16T15:14:47;21.90;98.60
24035;DHT22;12242;50.952;4.678;2022-10-16T15:17:14;22.10;98.70
24035;DHT22;12242;50.952;4.678;2022-10-16T15:19:46;22.10;98.60
24035;DHT22;12242;50.952;4.678;2022-10-16T15:22:15;22.20;99.10
24035;DHT22;12242;50.952;4.678;2022-10-16T15:24:43;22.00;98.40
24035;DHT22;12242;50.952;4.678;2022-10-16T15:27:12;22.00;98.80
24035;DHT22;12242;50.952;4.678;2022-10-16T15:29:43;22.00;99.50
24035;DHT22;12242;50.952;4.678;2022-10-16T15:32:11;22.10;99.90
24035;DHT22;12242;50.952;4.678;2022-10-16T15:34:39;22.20;99.80
24035;DHT22;12242;50.952;4.678;2022-10-16T15:37:09;22.20;99.90
24035;DHT22;12242;50.952;4.678;2022-10-16T15:39:36;22.30;99.90
24035;DHT22;12242;50.952;4.678;2022-10-16T15:42:09;22.20;99.90
24035;DHT22;12242;50.952;4.678;2022-10-16T15:44:38;22.20;99.90
24035;DHT22;12242;50.952;4.678;2022-10-16T15:47:08;22.00;99.90
24035;DHT22;12242;50.952;4.678;2022-10-16T15:49:38;21.70;99.90
24035;DHT22;12242;50.952;4.678;2022-10-16T15:52:06;21.20;99.90
24035;DHT22;12242;50.952;4.678;2022-10-16T15:54:33;21.10;99.90
24035;DHT22;12242;50.952;4.678;2022-10-16T15:57:03;21.20;99.90
24035;DHT22;12242;50.952;4.678;2022-10-16T15:59:31;21.40;99.90
24035;DHT22;12242;50.952;4.678;2022-10-16T16:02:03;21.40;99.90
24035;DHT22;12242;50.952;4.678;2022-10-16T16:04:33;21.50;99.90
24035;DHT22;12242;50.952;4.678;2022-10-16T16:07:16;21.50;99.90
24035;DHT22;12242;50.952;4.678;2022-10-16T16:09:43;21.50;99.90
24035;DHT22;12242;50.952;4.678;2022-10-16T16:12:12;21.40;99.90
24035;DHT22;12242;50.952;4.678;2022-10-16T16:14:40;21.30;99.90
24035;DHT22;12242;50.952;4.678;2022-10-16T16:17:10;21.30;99.90
24035;DHT22;12242;50.952;4.678;2022-10-16T16:19:42;21.20;99.90
24035;DHT22;12242;50.952;4.678;2022-10-16T16:22:10;21.20;99.90
24035;DHT22;12242;50.952;4.678;2022-10-16T16:24:40;21.10;99.90
24035;DHT22;12242;50.952;4.678;2022-10-16T16:27:09;20.40;99.90
24035;DHT22;12242;50.952;4.678;2022-10-16T16:29:37;19.60;99.90
24035;DHT22;12242;50.952;4.678;2022-10-16T16:32:05;19.60;99.90
24035;DHT22;12242;50.952;4.678;2022-10-16T16:34:35;19.90;99.90
24035;DHT22;12242;50.952;4.678;2022-10-16T16:37:03;19.90;99.90
24035;DHT22;12242;50.952;4.678;2022-10-16T16:39:30;19.90;99.90
24035;DHT22;12242;50.952;4.678;2022-10-16T16:41:57;20.10;99.90
24035;DHT22;12242;50.952;4.678;2022-10-16T16:44:29;20.10;99.90
24035;DHT22;12242;50.952;4.678;2022-10-16T16:46:57;20.00;99.90
24035;DHT22;12242;50.952;4.678;2022-10-16T16:49:27;19.90;99.90
24035;DHT22;12242;50.952;4.678;2022-10-16T16:51:57;19.80;99.90
24035;DHT22;12242;50.952;4.678;2022-10-16T16:54:24;19.70;99.90
24035;DHT22;12242;50.952;4.678;2022-10-16T16:56:55;19.70;99.90
24035;DHT22;12242;50.952;4.678;2022-10-16T16:59:22;19.50;99.90
24035;DHT22;12242;50.952;4.678;2022-10-16T17:01:52;19.30;99.90
24035;DHT22;12242;50.952;4.678;2022-10-16T17:04:23;19.20;99.90
24035;DHT22;12242;50.952;4.678;2022-10-16T17:06:53;19.00;99.90
24035;DHT22;12242;50.952;4.678;2022-10-16T17:09:23;19.10;99.90
24035;DHT22;12242;50.952;4.678;2022-10-16T17:11:51;19.10;99.90
24035;DHT22;12242;50.952;4.678;2022-10-16T17:14:18;19.30;99.90
24035;DHT22;12242;50.952;4.678;2022-10-16T17:16:46;19.40;99.90
24035;DHT22;12242;50.952;4.678;2022-10-16T17:19:17;19.50;99.90
24035;DHT22;12242;50.952;4.678;2022-10-16T17:21:48;19.60;99.90
24035;DHT22;12242;50.952;4.678;2022-10-16T17:24:16;19.70;99.90
24035;DHT22;12242;50.952;4.678;2022-10-16T17:26:45;19.70;99.90
24035;DHT22;12242;50.952;4.678;2022-10-16T17:29:16;19.20;99.90
24035;DHT22;12242;50.952;4.678;2022-10-16T17:31:47;19.00;99.90
24035;DHT22;12242;50.952;4.678;2022-10-16T17:34:16;19.20;99.90
24035;DHT22;12242;50.952;4.678;2022-10-16T17:36:43;19.30;99.90
24035;DHT22;12242;50.952;4.678;2022-10-16T17:39:14;19.40;99.90
24035;DHT22;12242;50.952;4.678;2022-10-16T17:41:46;19.40;99.90
24035;DHT22;12242;50.952;4.678;2022-10-16T17:44:14;19.50;99.90
24035;DHT22;12242;50.952;4.678;2022-10-16T17:46:52;19.60;99.90
24035;DHT22;12242;50.952;4.678;2022-10-16T17:49:20;19.60;99.90